sensor_id;sensor_type;location;lat;lon;timestamp;temperature;humidity
44190;DHT22;29856;52.144;5.430;2023-04-24T00:01:48;10.90;99.90
44190;DHT22;29856;52.144;5.430;2023-04-24T00:04:14;10.90;99.90
44190;DHT22;29856;52.144;5.430;2023-04-24T00:06:39;10.80;99.90
44190;DHT22;29856;52.144;5.430;2023-04-24T00:09:05;10.80;99.90
44190;DHT22;29856;52.144;5.430;2023-04-24T00:11:30;10.80;99.90
44190;DHT22;29856;52.144;5.430;2023-04-24T00:13:56;10.80;99.90
44190;DHT22;29856;52.144;5.430;2023-04-24T00:16:22;10.80;99.90
44190;DHT22;29856;52.144;5.430;2023-04-24T00:18:48;10.70;99.90
44190;DHT22;29856;52.144;5.430;2023-04-24T00:21:14;10.70;99.90
44190;DHT22;29856;52.144;5.430;2023-04-24T00:23:40;10.70;99.90
44190;DHT22;29856;52.144;5.430;2023-04-24T00:26:05;10.70;99.90
44190;DHT22;29856;52.144;5.430;2023-04-24T00:28:30;10.70;99.90
44190;DHT22;29856;52.144;5.430;2023-04-24T00:30:56;10.70;99.90
44190;DHT22;29856;52.144;5.430;2023-04-24T00:33:21;10.70;99.90
44190;DHT22;29856;52.144;5.430;2023-04-24T00:35:47;10.70;99.90
44190;DHT22;29856;52.144;5.430;2023-04-24T00:38:12;10.70;99.90
44190;DHT22;29856;52.144;5.430;2023-04-24T00:40:38;10.60;99.90
44190;DHT22;29856;52.144;5.430;2023-04-24T00:43:03;10.60;99.90
44190;DHT22;29856;52.144;5.430;2023-04-24T00:45:29;10.70;99.90
44190;DHT22;29856;52.144;5.430;2023-04-24T00:47:54;10.60;99.90
44190;DHT22;29856;52.144;5.430;2023-04-24T00:50:21;10.70;99.90
44190;DHT22;29856;52.144;5.430;2023-04-24T00:52:46;10.70;99.90
44190;DHT22;29856;52.144;5.430;2023-04-24T00:55:12;10.60;99.90
44190;DHT22;29856;52.144;5.430;2023-04-24T00:57:38;10.70;99.90
44190;DHT22;29856;52.144;5.430;2023-04-24T01:00:05;10.60;99.90
44190;DHT22;29856;52.144;5.430;2023-04-24T01:02:31;10.70;99.90
44190;DHT22;29856;52.144;5.430;2023-04-24T01:04:57;10.60;99.90
44190;DHT22;29856;52.144;5.430;2023-04-24T01:07:23;10.60;99.90
44190;DHT22;29856;52.144;5.430;2023-04-24T01:09:48;10.60;99.90
44190;DHT22;29856;52.144;5.430;2023-04-24T01:12:15;10.60;99.90
44190;DHT22;29856;52.144;5.430;2023-04-24T01:14:40;10.60;99.90
44190;DHT22;29856;52.144;5.430;2023-04-24T01:17:06;10.60;99.90
44190;DHT22;29856;52.144;5.430;2023-04-24T01:19:31;10.60;99.90
44190;DHT22;29856;52.144;5.430;2023-04-24T01:21:58;10.60;99.90
44190;DHT22;29856;52.144;5.430;2023-04-24T01:24:26;10.70;99.90
44190;DHT22;29856;52.144;5.430;2023-04-24T01:26:51;10.70;99.90
44190;DHT22;29856;52.144;5.430;2023-04-24T01:29:17;10.70;99.90
44190;DHT22;29856;52.144;5.430;2023-04-24T01:31:43;10.70;99.90
44190;DHT22;29856;52.144;5.430;2023-04-24T01:34:08;10.70;99.90
44190;DHT22;29856;52.144;5.430;2023-04-24T01:36:34;10.70;99.90
44190;DHT22;29856;52.144;5.430;2023-04-24T01:39:00;10.70;99.90
44190;DHT22;29856;52.144;5.430;2023-04-24T01:41:26;10.70;99.90
44190;DHT22;29856;52.144;5.430;2023-04-24T01:43:51;10.70;99.90
44190;DHT22;29856;52.144;5.430;2023-04-24T01:46:17;10.70;99.90
44190;DHT22;29856;52.144;5.430;2023-04-24T01:48:45;10.70;99.90
44190;DHT22;29856;52.144;5.430;2023-04-24T01:51:10;10.70;99.90
44190;DHT22;29856;52.144;5.430;2023-04-24T01:53:36;10.70;99.90
44190;DHT22;29856;52.144;5.430;2023-04-24T01:56:01;10.80;99.90
44190;DHT22;29856;52.144;5.430;2023-04-24T01:58:27;10.80;99.90
44190;DHT22;29856;52.144;5.430;2023-04-24T02:00:56;10.90;99.90
44190;DHT22;29856;52.144;5.430;2023-04-24T02:03:21;10.80;99.90
44190;DHT22;29856;52.144;5.430;2023-04-24T02:05:47;10.90;99.90
44190;DHT22;29856;52.144;5.430;2023-04-24T02:08:12;10.90;99.90
44190;DHT22;29856;52.144;5.430;2023-04-24T02:10:38;10.80;99.90
44190;DHT22;29856;52.144;5.430;2023-04-24T02:13:03;10.80;99.90
44190;DHT22;29856;52.144;5.430;2023-04-24T02:15:29;10.80;99.90
44190;DHT22;29856;52.144;5.430;2023-04-24T02:17:54;10.90;99.90
44190;DHT22;29856;52.144;5.430;2023-04-24T02:20:20;10.90;99.90
44190;DHT22;29856;52.144;5.430;2023-04-24T02:22:45;10.90;99.90
44190;DHT22;29856;52.144;5.430;2023-04-24T02:25:11;10.90;99.90
44190;DHT22;29856;52.144;5.430;2023-04-24T02:27:36;10.90;99.90
44190;DHT22;29856;52.144;5.430;2023-04-24T02:30:01;10.90;99.90
44190;DHT22;29856;52.144;5.430;2023-04-24T02:32:27;10.90;99.90
44190;DHT22;29856;52.144;5.430;2023-04-24T02:34:52;10.90;99.90
44190;DHT22;29856;52.144;5.430;2023-04-24T02:37:18;10.80;99.90
44190;DHT22;29856;52.144;5.430;2023-04-24T02:39:43;10.80;99.90
44190;DHT22;29856;52.144;5.430;2023-04-24T02:42:09;10.90;99.90
44190;DHT22;29856;52.144;5.430;2023-04-24T02:44:34;10.80;99.90
44190;DHT22;29856;52.144;5.430;2023-04-24T02:47:00;10.90;99.90
44190;DHT22;29856;52.144;5.430;2023-04-24T02:49:25;10.90;99.90
44190;DHT22;29856;52.144;5.430;2023-04-24T02:51:51;10.90;99.90
44190;DHT22;29856;52.144;5.430;2023-04-24T02:54:16;10.90;99.90
44190;DHT22;29856;52.144;5.430;2023-04-24T02:56:42;10.90;99.90
44190;DHT22;29856;52.144;5.430;2023-04-24T02:59:08;10.90;99.90
44190;DHT22;29856;52.144;5.430;2023-04-24T03:01:33;10.90;99.90
44190;DHT22;29856;52.144;5.430;2023-04-24T03:03:58;10.90;99.90
44190;DHT22;29856;52.144;5.430;2023-04-24T03:06:24;11.00;99.90
44190;DHT22;29856;52.144;5.430;2023-04-24T03:08:50;11.00;99.90
44190;DHT22;29856;52.144;5.430;2023-04-24T03:11:15;11.00;99.90
44190;DHT22;29856;52.144;5.430;2023-04-24T03:13:41;10.90;99.90
44190;DHT22;29856;52.144;5.430;2023-04-24T03:16:06;11.00;99.90
44190;DHT22;29856;52.144;5.430;2023-04-24T03:18:31;11.00;99.90
44190;DHT22;29856;52.144;5.430;2023-04-24T03:20:57;11.00;99.90
44190;DHT22;29856;52.144;5.430;2023-04-24T03:23:22;11.00;99.90
44190;DHT22;29856;52.144;5.430;2023-04-24T03:25:48;11.00;99.90
44190;DHT22;29856;52.144;5.430;2023-04-24T03:28:13;11.00;99.90
44190;DHT22;29856;52.144;5.430;2023-04-24T03:30:39;11.00;99.90
44190;DHT22;29856;52.144;5.430;2023-04-24T03:33:04;11.00;99.90
44190;DHT22;29856;52.144;5.430;2023-04-24T03:35:30;11.00;99.90
44190;DHT22;29856;52.144;5.430;2023-04-24T03:37:55;11.00;99.90
44190;DHT22;29856;52.144;5.430;2023-04-24T03:40:21;11.00;99.90
44190;DHT22;29856;52.144;5.430;2023-04-24T03:42:46;11.00;99.90
44190;DHT22;29856;52.144;5.430;2023-04-24T03:45:12;11.00;99.90
44190;DHT22;29856;52.144;5.430;2023-04-24T03:47:37;11.10;99.90
44190;DHT22;29856;52.144;5.430;2023-04-24T03:50:03;11.20;99.90
44190;DHT22;29856;52.144;5.430;2023-04-24T03:52:28;11.20;99.90
44190;DHT22;29856;52.144;5.430;2023-04-24T03:54:54;11.20;99.90
44190;DHT22;29856;52.144;5.430;2023-04-24T03:57:19;11.20;99.90
44190;DHT22;29856;52.144;5.430;2023-04-24T03:59:44;11.20;99.90
44190;DHT22;29856;52.144;5.430;2023-04-24T04:02:10;11.30;99.90
44190;DHT22;29856;52.144;5.430;2023-04-24T04:04:35;11.30;99.90
44190;DHT22;29856;52.144;5.430;2023-04-24T04:07:01;11.20;99.90
44190;DHT22;29856;52.144;5.430;2023-04-24T04:09:27;11.20;99.90
44190;DHT22;29856;52.144;5.430;2023-04-24T04:11:52;11.10;99.90
44190;DHT22;29856;52.144;5.430;2023-04-24T04:14:18;11.00;99.90
44190;DHT22;29856;52.144;5.430;2023-04-24T04:16:43;10.90;99.90
44190;DHT22;29856;52.144;5.430;2023-04-24T04:19:08;10.90;99.90
44190;DHT22;29856;52.144;5.430;2023-04-24T04:21:34;10.90;99.90
44190;DHT22;29856;52.144;5.430;2023-04-24T04:23:59;11.00;99.90
44190;DHT22;29856;52.144;5.430;2023-04-24T04:26:25;10.90;99.90
44190;DHT22;29856;52.144;5.430;2023-04-24T04:28:51;10.90;99.90
44190;DHT22;29856;52.144;5.430;2023-04-24T04:31:17;10.90;99.90
44190;DHT22;29856;52.144;5.430;2023-04-24T04:33:42;11.10;99.90
44190;DHT22;29856;52.144;5.430;2023-04-24T04:36:07;11.10;99.90
44190;DHT22;29856;52.144;5.430;2023-04-24T04:38:33;11.20;99.90
44190;DHT22;29856;52.144;5.430;2023-04-24T04:40:58;11.30;99.90
44190;DHT22;29856;52.144;5.430;2023-04-24T04:43:24;11.30;99.90
44190;DHT22;29856;52.144;5.430;2023-04-24T04:45:50;11.30;99.90
44190;DHT22;29856;52.144;5.430;2023-04-24T04:48:15;11.40;99.90
44190;DHT22;29856;52.144;5.430;2023-04-24T04:50:41;11.50;99.90
44190;DHT22;29856;52.144;5.430;2023-04-24T04:53:06;11.60;99.90
44190;DHT22;29856;52.144;5.430;2023-04-24T04:55:32;11.70;99.90
44190;DHT22;29856;52.144;5.430;2023-04-24T04:57:57;11.70;99.90
44190;DHT22;29856;52.144;5.430;2023-04-24T05:00:23;11.70;99.90
44190;DHT22;29856;52.144;5.430;2023-04-24T05:02:48;11.70;99.90
44190;DHT22;29856;52.144;5.430;2023-04-24T05:05:14;11.70;99.90
44190;DHT22;29856;52.144;5.430;2023-04-24T05:07:40;11.70;99.90
44190;DHT22;29856;52.144;5.430;2023-04-24T05:10:06;11.70;99.90
44190;DHT22;29856;52.144;5.430;2023-04-24T05:12:31;11.50;99.90
44190;DHT22;29856;52.144;5.430;2023-04-24T05:14:57;11.50;99.90
44190;DHT22;29856;52.144;5.430;2023-04-24T05:17:22;11.50;99.90
44190;DHT22;29856;52.144;5.430;2023-04-24T05:19:48;11.50;99.90
44190;DHT22;29856;52.144;5.430;2023-04-24T05:22:13;11.60;99.90
44190;DHT22;29856;52.144;5.430;2023-04-24T05:24:38;11.60;99.90
44190;DHT22;29856;52.144;5.430;2023-04-24T05:27:04;11.50;99.90
44190;DHT22;29856;52.144;5.430;2023-04-24T05:29:30;11.50;99.90
44190;DHT22;29856;52.144;5.430;2023-04-24T05:31:56;11.50;99.90
44190;DHT22;29856;52.144;5.430;2023-04-24T05:34:22;11.40;99.90
44190;DHT22;29856;52.144;5.430;2023-04-24T05:36:47;11.40;99.90
44190;DHT22;29856;52.144;5.430;2023-04-24T05:39:13;11.30;99.90
44190;DHT22;29856;52.144;5.430;2023-04-24T05:41:39;11.40;99.90
44190;DHT22;29856;52.144;5.430;2023-04-24T05:44:04;11.30;99.90
44190;DHT22;29856;52.144;5.430;2023-04-24T05:46:30;11.10;99.90
44190;DHT22;29856;52.144;5.430;2023-04-24T05:48:55;11.10;99.90
44190;DHT22;29856;52.144;5.430;2023-04-24T05:51:21;11.10;99.90
44190;DHT22;29856;52.144;5.430;2023-04-24T05:53:46;11.10;99.90
44190;DHT22;29856;52.144;5.430;2023-04-24T05:56:12;10.90;99.90
44190;DHT22;29856;52.144;5.430;2023-04-24T05:58:37;10.90;99.90
44190;DHT22;29856;52.144;5.430;2023-04-24T06:01:03;10.80;99.90
44190;DHT22;29856;52.144;5.430;2023-04-24T06:03:29;10.80;99.90
44190;DHT22;29856;52.144;5.430;2023-04-24T06:05:54;10.70;99.90
44190;DHT22;29856;52.144;5.430;2023-04-24T06:08:20;10.60;99.90
44190;DHT22;29856;52.144;5.430;2023-04-24T06:10:45;10.50;99.90
44190;DHT22;29856;52.144;5.430;2023-04-24T06:13:11;10.50;99.90
44190;DHT22;29856;52.144;5.430;2023-04-24T06:15:36;10.40;99.90
44190;DHT22;29856;52.144;5.430;2023-04-24T06:18:03;10.40;99.90
44190;DHT22;29856;52.144;5.430;2023-04-24T06:20:29;10.40;99.90
44190;DHT22;29856;52.144;5.430;2023-04-24T06:22:54;10.40;99.90
44190;DHT22;29856;52.144;5.430;2023-04-24T06:25:20;10.20;99.90
44190;DHT22;29856;52.144;5.430;2023-04-24T06:27:45;10.20;99.90
44190;DHT22;29856;52.144;5.430;2023-04-24T06:30:11;10.20;99.90
44190;DHT22;29856;52.144;5.430;2023-04-24T06:32:37;10.10;99.90
44190;DHT22;29856;52.144;5.430;2023-04-24T06:35:02;10.10;99.90
44190;DHT22;29856;52.144;5.430;2023-04-24T06:37:28;10.10;99.90
44190;DHT22;29856;52.144;5.430;2023-04-24T06:39:54;10.10;99.90
44190;DHT22;29856;52.144;5.430;2023-04-24T06:42:19;10.00;99.90
44190;DHT22;29856;52.144;5.430;2023-04-24T06:44:44;10.00;99.90
44190;DHT22;29856;52.144;5.430;2023-04-24T06:47:10;10.00;99.90
44190;DHT22;29856;52.144;5.430;2023-04-24T06:49:36;9.90;99.90
44190;DHT22;29856;52.144;5.430;2023-04-24T06:52:02;9.70;99.90
44190;DHT22;29856;52.144;5.430;2023-04-24T06:54:29;9.60;99.90
44190;DHT22;29856;52.144;5.430;2023-04-24T06:56:54;9.60;99.90
44190;DHT22;29856;52.144;5.430;2023-04-24T06:59:20;9.50;99.90
44190;DHT22;29856;52.144;5.430;2023-04-24T07:01:45;9.50;99.90
44190;DHT22;29856;52.144;5.430;2023-04-24T07:04:11;9.50;99.90
44190;DHT22;29856;52.144;5.430;2023-04-24T07:06:36;9.40;99.90
44190;DHT22;29856;52.144;5.430;2023-04-24T07:09:02;9.50;99.90
44190;DHT22;29856;52.144;5.430;2023-04-24T07:11:27;9.50;99.90
44190;DHT22;29856;52.144;5.430;2023-04-24T07:13:53;9.30;99.90
44190;DHT22;29856;52.144;5.430;2023-04-24T07:16:18;9.40;99.90
44190;DHT22;29856;52.144;5.430;2023-04-24T07:18:44;9.40;99.90
44190;DHT22;29856;52.144;5.430;2023-04-24T07:21:09;9.50;99.90
44190;DHT22;29856;52.144;5.430;2023-04-24T07:23:34;9.40;99.90
44190;DHT22;29856;52.144;5.430;2023-04-24T07:26:00;9.40;99.90
44190;DHT22;29856;52.144;5.430;2023-04-24T07:28:26;9.50;99.90
44190;DHT22;29856;52.144;5.430;2023-04-24T07:30:51;9.40;99.90
44190;DHT22;29856;52.144;5.430;2023-04-24T07:33:16;9.40;99.90
44190;DHT22;29856;52.144;5.430;2023-04-24T07:35:42;9.40;99.90
44190;DHT22;29856;52.144;5.430;2023-04-24T07:38:07;9.30;99.90
44190;DHT22;29856;52.144;5.430;2023-04-24T07:40:33;9.40;99.90
44190;DHT22;29856;52.144;5.430;2023-04-24T07:42:59;9.30;99.90
44190;DHT22;29856;52.144;5.430;2023-04-24T07:45:24;9.30;99.90
44190;DHT22;29856;52.144;5.430;2023-04-24T07:47:50;9.40;99.90
44190;DHT22;29856;52.144;5.430;2023-04-24T07:50:16;9.40;99.90
44190;DHT22;29856;52.144;5.430;2023-04-24T07:52:41;9.40;99.90
44190;DHT22;29856;52.144;5.430;2023-04-24T07:55:07;9.50;99.90
44190;DHT22;29856;52.144;5.430;2023-04-24T07:57:32;9.40;99.90
44190;DHT22;29856;52.144;5.430;2023-04-24T07:59:58;9.40;99.90
44190;DHT22;29856;52.144;5.430;2023-04-24T08:02:23;9.40;99.90
44190;DHT22;29856;52.144;5.430;2023-04-24T08:04:48;9.50;99.90
44190;DHT22;29856;52.144;5.430;2023-04-24T08:07:14;9.50;99.90
44190;DHT22;29856;52.144;5.430;2023-04-24T08:09:39;9.60;99.90
44190;DHT22;29856;52.144;5.430;2023-04-24T08:12:05;9.60;99.90
44190;DHT22;29856;52.144;5.430;2023-04-24T08:14:30;9.50;99.90
44190;DHT22;29856;52.144;5.430;2023-04-24T08:16:56;9.50;99.90
44190;DHT22;29856;52.144;5.430;2023-04-24T08:19:22;9.50;99.90
44190;DHT22;29856;52.144;5.430;2023-04-24T08:21:47;9.40;99.90
44190;DHT22;29856;52.144;5.430;2023-04-24T08:24:13;9.40;99.90
44190;DHT22;29856;52.144;5.430;2023-04-24T08:26:38;9.30;99.90
44190;DHT22;29856;52.144;5.430;2023-04-24T08:29:04;9.30;99.90
44190;DHT22;29856;52.144;5.430;2023-04-24T08:31:30;9.30;99.90
44190;DHT22;29856;52.144;5.430;2023-04-24T08:33:55;9.30;99.90
44190;DHT22;29856;52.144;5.430;2023-04-24T08:36:21;9.30;99.90
44190;DHT22;29856;52.144;5.430;2023-04-24T08:38:46;9.20;99.90
44190;DHT22;29856;52.144;5.430;2023-04-24T08:41:14;9.20;99.90
44190;DHT22;29856;52.144;5.430;2023-04-24T08:43:40;9.20;99.90
44190;DHT22;29856;52.144;5.430;2023-04-24T08:46:06;9.20;99.90
44190;DHT22;29856;52.144;5.430;2023-04-24T08:48:32;9.20;99.90
44190;DHT22;29856;52.144;5.430;2023-04-24T08:50:59;9.20;99.90
44190;DHT22;29856;52.144;5.430;2023-04-24T08:53:25;9.30;99.90
44190;DHT22;29856;52.144;5.430;2023-04-24T08:55:51;9.40;99.90
44190;DHT22;29856;52.144;5.430;2023-04-24T08:58:19;9.40;99.90
44190;DHT22;29856;52.144;5.430;2023-04-24T09:00:44;9.50;99.90
44190;DHT22;29856;52.144;5.430;2023-04-24T09:03:10;9.50;99.90
44190;DHT22;29856;52.144;5.430;2023-04-24T09:05:36;9.50;99.90
44190;DHT22;29856;52.144;5.430;2023-04-24T09:08:02;9.50;99.90
44190;DHT22;29856;52.144;5.430;2023-04-24T09:10:29;9.60;99.90
44190;DHT22;29856;52.144;5.430;2023-04-24T09:12:56;9.50;99.90
44190;DHT22;29856;52.144;5.430;2023-04-24T09:15:21;9.60;99.90
44190;DHT22;29856;52.144;5.430;2023-04-24T09:17:47;9.60;99.90
44190;DHT22;29856;52.144;5.430;2023-04-24T09:20:13;9.60;99.90
44190;DHT22;29856;52.144;5.430;2023-04-24T09:22:38;9.60;99.90
44190;DHT22;29856;52.144;5.430;2023-04-24T09:25:08;9.70;99.90
44190;DHT22;29856;52.144;5.430;2023-04-24T09:27:34;9.80;99.90
44190;DHT22;29856;52.144;5.430;2023-04-24T09:30:00;10.00;99.90
44190;DHT22;29856;52.144;5.430;2023-04-24T09:32:26;10.00;99.90
44190;DHT22;29856;52.144;5.430;2023-04-24T09:35:11;10.00;99.90
44190;DHT22;29856;52.144;5.430;2023-04-24T09:37:46;10.10;99.90
44190;DHT22;29856;52.144;5.430;2023-04-24T09:40:20;10.10;99.90
44190;DHT22;29856;52.144;5.430;2023-04-24T09:42:53;10.10;99.90
44190;DHT22;29856;52.144;5.430;2023-04-24T09:45:20;10.20;99.90
44190;DHT22;29856;52.144;5.430;2023-04-24T09:47:45;10.20;99.90
44190;DHT22;29856;52.144;5.430;2023-04-24T09:50:15;10.30;99.90
44190;DHT22;29856;52.144;5.430;2023-04-24T09:52:42;10.30;99.90
44190;DHT22;29856;52.144;5.430;2023-04-24T09:55:18;10.20;99.90
44190;DHT22;29856;52.144;5.430;2023-04-24T09:57:51;10.20;99.90
44190;DHT22;29856;52.144;5.430;2023-04-24T10:00:25;10.20;99.90
44190;DHT22;29856;52.144;5.430;2023-04-24T10:02:55;10.30;99.90
44190;DHT22;29856;52.144;5.430;2023-04-24T10:05:24;10.30;99.90
44190;DHT22;29856;52.144;5.430;2023-04-24T10:07:49;10.30;99.90
44190;DHT22;29856;52.144;5.430;2023-04-24T10:10:15;10.40;99.90
44190;DHT22;29856;52.144;5.430;2023-04-24T10:12:41;10.30;99.90
44190;DHT22;29856;52.144;5.430;2023-04-24T10:15:09;10.40;99.90
44190;DHT22;29856;52.144;5.430;2023-04-24T10:17:35;10.40;99.90
44190;DHT22;29856;52.144;5.430;2023-04-24T10:20:01;10.50;99.90
44190;DHT22;29856;52.144;5.430;2023-04-24T10:22:28;10.40;99.90
44190;DHT22;29856;52.144;5.430;2023-04-24T10:24:54;10.60;99.90
44190;DHT22;29856;52.144;5.430;2023-04-24T10:27:20;10.40;99.90
44190;DHT22;29856;52.144;5.430;2023-04-24T10:29:47;10.30;99.90
44190;DHT22;29856;52.144;5.430;2023-04-24T10:32:13;10.30;99.90
44190;DHT22;29856;52.144;5.430;2023-04-24T10:34:39;10.40;99.90
44190;DHT22;29856;52.144;5.430;2023-04-24T10:37:04;10.40;99.90
44190;DHT22;29856;52.144;5.430;2023-04-24T10:39:32;10.50;99.90
44190;DHT22;29856;52.144;5.430;2023-04-24T10:41:57;10.60;99.90
44190;DHT22;29856;52.144;5.430;2023-04-24T10:44:23;10.60;99.90
44190;DHT22;29856;52.144;5.430;2023-04-24T10:46:53;10.80;99.90
44190;DHT22;29856;52.144;5.430;2023-04-24T10:49:28;10.90;99.90
44190;DHT22;29856;52.144;5.430;2023-04-24T10:52:00;10.80;99.90
44190;DHT22;29856;52.144;5.430;2023-04-24T10:54:29;10.70;99.90
44190;DHT22;29856;52.144;5.430;2023-04-24T10:59:46;10.60;99.90
44190;DHT22;29856;52.144;5.430;2023-04-24T11:02:14;10.60;99.90
44190;DHT22;29856;52.144;5.430;2023-04-24T11:04:40;10.50;99.90
44190;DHT22;29856;52.144;5.430;2023-04-24T11:07:06;10.40;99.90
44190;DHT22;29856;52.144;5.430;2023-04-24T11:09:32;10.40;99.90
44190;DHT22;29856;52.144;5.430;2023-04-24T11:12:08;10.30;99.90
44190;DHT22;29856;52.144;5.430;2023-04-24T11:17:36;10.20;99.90
44190;DHT22;29856;52.144;5.430;2023-04-24T11:20:07;10.10;99.90
44190;DHT22;29856;52.144;5.430;2023-04-24T11:22:34;10.00;99.90
44190;DHT22;29856;52.144;5.430;2023-04-24T11:25:00;10.00;99.90
44190;DHT22;29856;52.144;5.430;2023-04-24T11:27:41;9.90;99.90
44190;DHT22;29856;52.144;5.430;2023-04-24T11:30:07;10.00;99.90
44190;DHT22;29856;52.144;5.430;2023-04-24T11:35:02;10.20;99.90
44190;DHT22;29856;52.144;5.430;2023-04-24T11:40:01;10.80;99.90
44190;DHT22;29856;52.144;5.430;2023-04-24T11:42:28;11.10;99.90
44190;DHT22;29856;52.144;5.430;2023-04-24T11:44:54;11.00;99.90
44190;DHT22;29856;52.144;5.430;2023-04-24T11:47:20;11.10;99.90
44190;DHT22;29856;52.144;5.430;2023-04-24T11:49:45;11.10;99.90
44190;DHT22;29856;52.144;5.430;2023-04-24T11:52:11;11.10;99.90
44190;DHT22;29856;52.144;5.430;2023-04-24T11:54:47;11.30;99.90
44190;DHT22;29856;52.144;5.430;2023-04-24T11:57:13;11.40;99.90
44190;DHT22;29856;52.144;5.430;2023-04-24T11:59:38;11.60;99.90
44190;DHT22;29856;52.144;5.430;2023-04-24T12:02:04;11.60;99.90
44190;DHT22;29856;52.144;5.430;2023-04-24T12:04:40;11.70;99.90
44190;DHT22;29856;52.144;5.430;2023-04-24T12:07:06;12.00;99.90
44190;DHT22;29856;52.144;5.430;2023-04-24T12:12:12;11.60;99.90
44190;DHT22;29856;52.144;5.430;2023-04-24T12:14:48;11.40;99.90
44190;DHT22;29856;52.144;5.430;2023-04-24T12:17:15;11.40;99.90
44190;DHT22;29856;52.144;5.430;2023-04-24T12:19:46;11.40;99.90
44190;DHT22;29856;52.144;5.430;2023-04-24T12:22:11;11.30;99.90
44190;DHT22;29856;52.144;5.430;2023-04-24T12:24:56;11.10;99.90
44190;DHT22;29856;52.144;5.430;2023-04-24T12:27:21;11.10;99.90
44190;DHT22;29856;52.144;5.430;2023-04-24T12:29:58;11.10;99.90
44190;DHT22;29856;52.144;5.430;2023-04-24T12:32:24;10.90;99.90
44190;DHT22;29856;52.144;5.430;2023-04-24T12:34:50;10.90;99.90
44190;DHT22;29856;52.144;5.430;2023-04-24T12:37:15;11.00;99.90
44190;DHT22;29856;52.144;5.430;2023-04-24T12:40:07;11.10;99.90
44190;DHT22;29856;52.144;5.430;2023-04-24T12:42:33;11.20;99.90
44190;DHT22;29856;52.144;5.430;2023-04-24T12:45:02;11.10;99.90
44190;DHT22;29856;52.144;5.430;2023-04-24T12:47:28;10.90;99.90
44190;DHT22;29856;52.144;5.430;2023-04-24T12:49:54;10.90;99.90
44190;DHT22;29856;52.144;5.430;2023-04-24T12:52:19;11.00;99.90
44190;DHT22;29856;52.144;5.430;2023-04-24T12:54:45;10.90;99.90
44190;DHT22;29856;52.144;5.430;2023-04-24T12:57:10;10.90;99.90
44190;DHT22;29856;52.144;5.430;2023-04-24T12:59:36;10.90;99.90
44190;DHT22;29856;52.144;5.430;2023-04-24T13:02:02;10.80;99.90
44190;DHT22;29856;52.144;5.430;2023-04-24T13:04:27;10.70;99.90
44190;DHT22;29856;52.144;5.430;2023-04-24T13:06:53;10.40;99.90
44190;DHT22;29856;52.144;5.430;2023-04-24T13:09:18;10.40;99.90
44190;DHT22;29856;52.144;5.430;2023-04-24T13:11:44;10.20;99.90
44190;DHT22;29856;52.144;5.430;2023-04-24T13:14:09;10.40;99.90
44190;DHT22;29856;52.144;5.430;2023-04-24T13:16:35;10.30;99.90
44190;DHT22;29856;52.144;5.430;2023-04-24T13:19:00;10.50;99.90
44190;DHT22;29856;52.144;5.430;2023-04-24T13:21:26;10.40;99.90
44190;DHT22;29856;52.144;5.430;2023-04-24T13:23:51;10.40;99.90
44190;DHT22;29856;52.144;5.430;2023-04-24T13:26:16;10.50;99.90
44190;DHT22;29856;52.144;5.430;2023-04-24T13:28:42;10.60;99.90
44190;DHT22;29856;52.144;5.430;2023-04-24T13:31:07;10.90;99.90
44190;DHT22;29856;52.144;5.430;2023-04-24T13:33:33;11.00;99.90
44190;DHT22;29856;52.144;5.430;2023-04-24T13:35:58;11.00;99.90
44190;DHT22;29856;52.144;5.430;2023-04-24T13:38:24;11.10;99.90
44190;DHT22;29856;52.144;5.430;2023-04-24T13:40:49;11.20;99.90
44190;DHT22;29856;52.144;5.430;2023-04-24T13:43:15;10.90;99.90
44190;DHT22;29856;52.144;5.430;2023-04-24T13:45:40;11.10;99.90
44190;DHT22;29856;52.144;5.430;2023-04-24T13:48:06;11.20;99.90
44190;DHT22;29856;52.144;5.430;2023-04-24T13:50:31;11.10;99.90
44190;DHT22;29856;52.144;5.430;2023-04-24T13:52:57;11.10;99.90
44190;DHT22;29856;52.144;5.430;2023-04-24T13:55:22;11.00;99.90
44190;DHT22;29856;52.144;5.430;2023-04-24T13:57:48;11.00;99.90
44190;DHT22;29856;52.144;5.430;2023-04-24T14:00:14;10.80;99.90
44190;DHT22;29856;52.144;5.430;2023-04-24T14:02:40;10.90;99.90
44190;DHT22;29856;52.144;5.430;2023-04-24T14:05:06;10.90;99.90
44190;DHT22;29856;52.144;5.430;2023-04-24T14:07:31;11.10;99.90
44190;DHT22;29856;52.144;5.430;2023-04-24T14:09:57;11.20;99.90
44190;DHT22;29856;52.144;5.430;2023-04-24T14:12:22;11.50;99.90
44190;DHT22;29856;52.144;5.430;2023-04-24T14:14:49;11.50;99.90
44190;DHT22;29856;52.144;5.430;2023-04-24T14:17:14;11.50;99.90
44190;DHT22;29856;52.144;5.430;2023-04-24T14:19:41;11.40;99.90
44190;DHT22;29856;52.144;5.430;2023-04-24T14:22:06;11.30;99.90
44190;DHT22;29856;52.144;5.430;2023-04-24T14:24:32;11.30;99.90
44190;DHT22;29856;52.144;5.430;2023-04-24T14:26:57;11.50;99.90
44190;DHT22;29856;52.144;5.430;2023-04-24T14:29:23;11.30;99.90
44190;DHT22;29856;52.144;5.430;2023-04-24T14:31:49;11.30;99.90
44190;DHT22;29856;52.144;5.430;2023-04-24T14:34:14;11.10;99.90
44190;DHT22;29856;52.144;5.430;2023-04-24T14:36:40;11.10;99.90
44190;DHT22;29856;52.144;5.430;2023-04-24T14:39:06;11.10;99.90
44190;DHT22;29856;52.144;5.430;2023-04-24T14:41:33;11.00;99.90
44190;DHT22;29856;52.144;5.430;2023-04-24T14:43:58;11.00;99.90
44190;DHT22;29856;52.144;5.430;2023-04-24T14:46:24;11.20;99.90
44190;DHT22;29856;52.144;5.430;2023-04-24T14:48:49;11.10;99.90
44190;DHT22;29856;52.144;5.430;2023-04-24T14:51:16;11.10;99.90
44190;DHT22;29856;52.144;5.430;2023-04-24T14:53:41;11.10;99.90
44190;DHT22;29856;52.144;5.430;2023-04-24T14:56:07;11.10;99.90
44190;DHT22;29856;52.144;5.430;2023-04-24T14:58:32;11.10;99.90
44190;DHT22;29856;52.144;5.430;2023-04-24T15:00:57;11.20;99.90
44190;DHT22;29856;52.144;5.430;2023-04-24T15:03:23;11.00;99.90
44190;DHT22;29856;52.144;5.430;2023-04-24T15:05:50;10.80;99.90
44190;DHT22;29856;52.144;5.430;2023-04-24T15:08:17;10.20;99.90
44190;DHT22;29856;52.144;5.430;2023-04-24T15:10:43;10.50;99.90
44190;DHT22;29856;52.144;5.430;2023-04-24T15:13:09;10.50;99.90
44190;DHT22;29856;52.144;5.430;2023-04-24T15:15:35;10.50;99.90
44190;DHT22;29856;52.144;5.430;2023-04-24T15:18:00;10.50;99.90
44190;DHT22;29856;52.144;5.430;2023-04-24T15:20:27;10.50;99.90
44190;DHT22;29856;52.144;5.430;2023-04-24T15:22:53;10.40;99.90
44190;DHT22;29856;52.144;5.430;2023-04-24T15:25:18;10.40;99.90
44190;DHT22;29856;52.144;5.430;2023-04-24T15:27:45;10.40;99.90
44190;DHT22;29856;52.144;5.430;2023-04-24T15:30:11;10.40;99.90
44190;DHT22;29856;52.144;5.430;2023-04-24T15:32:38;10.30;99.90
44190;DHT22;29856;52.144;5.430;2023-04-24T15:35:04;10.50;99.90
44190;DHT22;29856;52.144;5.430;2023-04-24T15:37:31;10.40;99.90
44190;DHT22;29856;52.144;5.430;2023-04-24T15:39:56;10.60;99.90